sensor_id;sensor_type;location;lat;lon;timestamp;pressure;altitude;pressure_sealevel;temperature;humidity
21902;BME280;11115;46.038;14.612;2023-04-25T00:01:03;97777.41;;;9.92;100.00
21902;BME280;11115;46.038;14.612;2023-04-25T00:03:42;97778.84;;;9.81;100.00
21902;BME280;11115;46.038;14.612;2023-04-25T00:06:18;97767.28;;;9.70;100.00
21902;BME280;11115;46.038;14.612;2023-04-25T00:08:49;97752.63;;;9.53;100.00
21902;BME280;11115;46.038;14.612;2023-04-25T00:11:20;97760.16;;;9.69;100.00
21902;BME280;11115;46.038;14.612;2023-04-25T00:13:51;97760.63;;;9.71;100.00
21902;BME280;11115;46.038;14.612;2023-04-25T00:16:23;97763.81;;;9.56;100.00
21902;BME280;11115;46.038;14.612;2023-04-25T00:18:57;97759.28;;;9.60;100.00
21902;BME280;11115;46.038;14.612;2023-04-25T00:21:30;97739.25;;;9.37;100.00
21902;BME280;11115;46.038;14.612;2023-04-25T00:24:03;97750.44;;;9.41;100.00
21902;BME280;11115;46.038;14.612;2023-04-25T00:26:34;97746.22;;;9.35;100.00
21902;BME280;11115;46.038;14.612;2023-04-25T00:29:13;97750.91;;;9.26;100.00
21902;BME280;11115;46.038;14.612;2023-04-25T00:31:41;97752.94;;;9.11;100.00
21902;BME280;11115;46.038;14.612;2023-04-25T00:34:13;97750.13;;;9.03;100.00
21902;BME280;11115;46.038;14.612;2023-04-25T00:36:44;97760.22;;;9.07;100.00
21902;BME280;11115;46.038;14.612;2023-04-25T00:39:16;97751.41;;;9.05;100.00
21902;BME280;11115;46.038;14.612;2023-04-25T00:41:50;97747.91;;;9.13;100.00
21902;BME280;11115;46.038;14.612;2023-04-25T00:44:25;97745.38;;;9.26;100.00
21902;BME280;11115;46.038;14.612;2023-04-25T00:47:11;97744.03;;;9.23;100.00
21902;BME280;11115;46.038;14.612;2023-04-25T00:49:40;97746.84;;;9.01;100.00
21902;BME280;11115;46.038;14.612;2023-04-25T00:52:14;97737.06;;;8.64;100.00
21902;BME280;11115;46.038;14.612;2023-04-25T00:55:07;97741.78;;;8.41;100.00
21902;BME280;11115;46.038;14.612;2023-04-25T00:57:44;97724.72;;;8.61;100.00
21902;BME280;11115;46.038;14.612;2023-04-25T01:00:31;97750.41;;;8.93;100.00
21902;BME280;11115;46.038;14.612;2023-04-25T01:03:06;97749.72;;;8.87;100.00
21902;BME280;11115;46.038;14.612;2023-04-25T01:05:46;97751.91;;;8.76;100.00
21902;BME280;11115;46.038;14.612;2023-04-25T01:08:25;97737.63;;;8.30;100.00
21902;BME280;11115;46.038;14.612;2023-04-25T01:11:00;97743.41;;;8.28;100.00
21902;BME280;11115;46.038;14.612;2023-04-25T01:13:34;97761.28;;;8.31;100.00
21902;BME280;11115;46.038;14.612;2023-04-25T01:16:05;97749.94;;;8.10;100.00
21902;BME280;11115;46.038;14.612;2023-04-25T01:18:42;97743.63;;;7.96;100.00
21902;BME280;11115;46.038;14.612;2023-04-25T01:21:19;97759.03;;;7.97;100.00
21902;BME280;11115;46.038;14.612;2023-04-25T01:23:48;97751.03;;;7.73;100.00
21902;BME280;11115;46.038;14.612;2023-04-25T01:26:19;97752.56;;;7.65;100.00
21902;BME280;11115;46.038;14.612;2023-04-25T01:28:52;97755.72;;;7.45;100.00
21902;BME280;11115;46.038;14.612;2023-04-25T01:31:21;97756.03;;;7.43;100.00
21902;BME280;11115;46.038;14.612;2023-04-25T01:33:51;97757.22;;;7.78;100.00
21902;BME280;11115;46.038;14.612;2023-04-25T01:36:31;97766.19;;;7.70;100.00
21902;BME280;11115;46.038;14.612;2023-04-25T01:39:07;97761.75;;;7.60;100.00
21902;BME280;11115;46.038;14.612;2023-04-25T01:41:47;97761.13;;;7.77;100.00
21902;BME280;11115;46.038;14.612;2023-04-25T01:44:17;97767.91;;;7.94;100.00
21902;BME280;11115;46.038;14.612;2023-04-25T01:46:48;97763.91;;;8.00;100.00
21902;BME280;11115;46.038;14.612;2023-04-25T01:49:20;97769.56;;;7.95;100.00
21902;BME280;11115;46.038;14.612;2023-04-25T01:52:05;97761.94;;;8.14;100.00
21902;BME280;11115;46.038;14.612;2023-04-25T01:54:37;97771.41;;;8.21;100.00
21902;BME280;11115;46.038;14.612;2023-04-25T01:57:15;97772.63;;;8.29;100.00
21902;BME280;11115;46.038;14.612;2023-04-25T01:59:48;97776.19;;;8.30;100.00
21902;BME280;11115;46.038;14.612;2023-04-25T02:02:41;97774.53;;;8.29;100.00
21902;BME280;11115;46.038;14.612;2023-04-25T02:05:27;97774.25;;;8.30;100.00
21902;BME280;11115;46.038;14.612;2023-04-25T02:07:58;97780.16;;;8.37;100.00
21902;BME280;11115;46.038;14.612;2023-04-25T02:10:34;97784.88;;;8.37;100.00
21902;BME280;11115;46.038;14.612;2023-04-25T02:13:29;97768.13;;;8.33;100.00
21902;BME280;11115;46.038;14.612;2023-04-25T02:16:15;97780.72;;;8.48;100.00
21902;BME280;11115;46.038;14.612;2023-04-25T02:18:46;97779.31;;;8.50;100.00
21902;BME280;11115;46.038;14.612;2023-04-25T02:21:22;97782.56;;;8.52;100.00
21902;BME280;11115;46.038;14.612;2023-04-25T02:23:56;97779.09;;;8.47;100.00
21902;BME280;11115;46.038;14.612;2023-04-25T02:26:40;97770.66;;;8.43;100.00
21902;BME280;11115;46.038;14.612;2023-04-25T02:29:10;97787.72;;;8.68;100.00
21902;BME280;11115;46.038;14.612;2023-04-25T02:31:59;97794.22;;;8.72;100.00
21902;BME280;11115;46.038;14.612;2023-04-25T02:34:32;97788.25;;;8.78;100.00
21902;BME280;11115;46.038;14.612;2023-04-25T02:37:16;97794.66;;;8.65;100.00
21902;BME280;11115;46.038;14.612;2023-04-25T02:39:45;97793.72;;;8.70;100.00
21902;BME280;11115;46.038;14.612;2023-04-25T02:42:19;97783.06;;;8.77;100.00
21902;BME280;11115;46.038;14.612;2023-04-25T02:44:47;97773.94;;;8.68;100.00
21902;BME280;11115;46.038;14.612;2023-04-25T02:47:22;97785.06;;;8.85;100.00
21902;BME280;11115;46.038;14.612;2023-04-25T02:50:03;97774.72;;;8.91;100.00
21902;BME280;11115;46.038;14.612;2023-04-25T02:52:41;97777.66;;;8.94;100.00
21902;BME280;11115;46.038;14.612;2023-04-25T02:55:22;97763.56;;;8.96;100.00
21902;BME280;11115;46.038;14.612;2023-04-25T02:58:04;97775.59;;;9.00;100.00
21902;BME280;11115;46.038;14.612;2023-04-25T03:00:50;97776.22;;;8.97;100.00
21902;BME280;11115;46.038;14.612;2023-04-25T03:03:22;97760.66;;;9.01;100.00
21902;BME280;11115;46.038;14.612;2023-04-25T03:05:55;97767.13;;;8.96;100.00
21902;BME280;11115;46.038;14.612;2023-04-25T03:08:31;97745.59;;;8.76;100.00
21902;BME280;11115;46.038;14.612;2023-04-25T03:11:14;97757.88;;;8.92;100.00
21902;BME280;11115;46.038;14.612;2023-04-25T03:13:50;97765.34;;;9.00;100.00
21902;BME280;11115;46.038;14.612;2023-04-25T03:16:21;97771.34;;;8.94;100.00
21902;BME280;11115;46.038;14.612;2023-04-25T03:18:57;97772.41;;;8.84;100.00
21902;BME280;11115;46.038;14.612;2023-04-25T03:21:35;97764.91;;;8.76;100.00
21902;BME280;11115;46.038;14.612;2023-04-25T03:24:05;97778.63;;;8.90;100.00
21902;BME280;11115;46.038;14.612;2023-04-25T03:26:49;97781.31;;;8.81;100.00
21902;BME280;11115;46.038;14.612;2023-04-25T03:29:22;97775.41;;;8.96;100.00
21902;BME280;11115;46.038;14.612;2023-04-25T03:31:56;97780.34;;;9.08;100.00
21902;BME280;11115;46.038;14.612;2023-04-25T03:34:34;97771.53;;;9.06;100.00
21902;BME280;11115;46.038;14.612;2023-04-25T03:37:02;97768.22;;;9.18;100.00
21902;BME280;11115;46.038;14.612;2023-04-25T03:39:39;97775.50;;;9.13;100.00
21902;BME280;11115;46.038;14.612;2023-04-25T03:42:12;97775.31;;;9.10;100.00
21902;BME280;11115;46.038;14.612;2023-04-25T03:44:46;97775.75;;;9.03;100.00
21902;BME280;11115;46.038;14.612;2023-04-25T03:47:24;97759.50;;;8.93;100.00
21902;BME280;11115;46.038;14.612;2023-04-25T03:49:59;97781.91;;;9.00;100.00
21902;BME280;11115;46.038;14.612;2023-04-25T03:52:32;97772.59;;;8.88;100.00
21902;BME280;11115;46.038;14.612;2023-04-25T03:55:04;97782.19;;;8.90;100.00
21902;BME280;11115;46.038;14.612;2023-04-25T03:57:47;97784.66;;;9.00;100.00
21902;BME280;11115;46.038;14.612;2023-04-25T04:00:19;97786.44;;;8.96;100.00
21902;BME280;11115;46.038;14.612;2023-04-25T04:02:53;97787.59;;;9.04;100.00
21902;BME280;11115;46.038;14.612;2023-04-25T04:05:26;97773.91;;;8.90;100.00
21902;BME280;11115;46.038;14.612;2023-04-25T04:07:57;97799.47;;;9.04;100.00
21902;BME280;11115;46.038;14.612;2023-04-25T04:10:32;97795.66;;;8.92;100.00
21902;BME280;11115;46.038;14.612;2023-04-25T04:13:02;97797.72;;;8.86;100.00
21902;BME280;11115;46.038;14.612;2023-04-25T04:15:38;97805.19;;;8.86;100.00
21902;BME280;11115;46.038;14.612;2023-04-25T04:18:23;97803.75;;;8.88;100.00
21902;BME280;11115;46.038;14.612;2023-04-25T04:20:57;97789.56;;;8.81;100.00
21902;BME280;11115;46.038;14.612;2023-04-25T04:23:34;97779.81;;;8.75;100.00
21902;BME280;11115;46.038;14.612;2023-04-25T04:26:11;97786.91;;;8.90;100.00
21902;BME280;11115;46.038;14.612;2023-04-25T04:29:10;97787.72;;;8.90;100.00
21902;BME280;11115;46.038;14.612;2023-04-25T04:31:55;97789.19;;;8.96;100.00
21902;BME280;11115;46.038;14.612;2023-04-25T04:34:31;97801.84;;;8.97;100.00
21902;BME280;11115;46.038;14.612;2023-04-25T04:37:05;97805.06;;;8.91;100.00
21902;BME280;11115;46.038;14.612;2023-04-25T04:39:37;97805.13;;;8.99;100.00
21902;BME280;11115;46.038;14.612;2023-04-25T04:42:21;97786.56;;;8.91;100.00
21902;BME280;11115;46.038;14.612;2023-04-25T04:45:23;97807.00;;;9.12;100.00
21902;BME280;11115;46.038;14.612;2023-04-25T04:48:14;97788.09;;;9.06;100.00
21902;BME280;11115;46.038;14.612;2023-04-25T04:51:08;97799.53;;;9.13;100.00
21902;BME280;11115;46.038;14.612;2023-04-25T04:53:47;97794.63;;;9.10;100.00
21902;BME280;11115;46.038;14.612;2023-04-25T04:56:40;97804.56;;;9.20;100.00
21902;BME280;11115;46.038;14.612;2023-04-25T04:59:28;97785.41;;;9.15;100.00
21902;BME280;11115;46.038;14.612;2023-04-25T05:02:30;97796.47;;;9.23;100.00
21902;BME280;11115;46.038;14.612;2023-04-25T05:05:20;97800.69;;;9.21;100.00
21902;BME280;11115;46.038;14.612;2023-04-25T05:08:26;97801.66;;;9.16;100.00
21902;BME280;11115;46.038;14.612;2023-04-25T05:11:21;97780.03;;;9.09;100.00
21902;BME280;11115;46.038;14.612;2023-04-25T05:14:04;97800.38;;;9.22;100.00
21902;BME280;11115;46.038;14.612;2023-04-25T05:17:04;97799.28;;;9.32;100.00
21902;BME280;11115;46.038;14.612;2023-04-25T05:20:14;97790.97;;;9.23;100.00
21902;BME280;11115;46.038;14.612;2023-04-25T05:23:06;97792.47;;;9.29;100.00
21902;BME280;11115;46.038;14.612;2023-04-25T05:26:12;97792.81;;;9.36;100.00
21902;BME280;11115;46.038;14.612;2023-04-25T05:28:51;97771.41;;;9.42;100.00
21902;BME280;11115;46.038;14.612;2023-04-25T05:31:45;97785.59;;;9.58;100.00
21902;BME280;11115;46.038;14.612;2023-04-25T05:34:19;97774.94;;;9.73;100.00
21902;BME280;11115;46.038;14.612;2023-04-25T05:37:09;97774.66;;;9.84;100.00
21902;BME280;11115;46.038;14.612;2023-04-25T05:39:52;97772.72;;;9.93;100.00
21902;BME280;11115;46.038;14.612;2023-04-25T05:42:32;97764.09;;;9.94;100.00
21902;BME280;11115;46.038;14.612;2023-04-25T05:45:35;97758.72;;;9.89;100.00
21902;BME280;11115;46.038;14.612;2023-04-25T05:48:43;97764.13;;;10.03;100.00
21902;BME280;11115;46.038;14.612;2023-04-25T05:51:33;97762.47;;;10.02;100.00
21902;BME280;11115;46.038;14.612;2023-04-25T05:54:26;97756.16;;;10.10;100.00
21902;BME280;11115;46.038;14.612;2023-04-25T05:56:57;97750.47;;;10.15;100.00
21902;BME280;11115;46.038;14.612;2023-04-25T05:59:31;97758.91;;;10.10;100.00
21902;BME280;11115;46.038;14.612;2023-04-25T06:02:04;97753.88;;;10.12;100.00
21902;BME280;11115;46.038;14.612;2023-04-25T06:04:37;97702.16;;;9.78;100.00
21902;BME280;11115;46.038;14.612;2023-04-25T06:07:09;97734.69;;;9.98;100.00
21902;BME280;11115;46.038;14.612;2023-04-25T06:09:40;97743.16;;;10.11;100.00
21902;BME280;11115;46.038;14.612;2023-04-25T06:12:19;97750.47;;;10.15;100.00
21902;BME280;11115;46.038;14.612;2023-04-25T06:14:52;97746.22;;;10.18;100.00
21902;BME280;11115;46.038;14.612;2023-04-25T06:17:23;97733.41;;;10.04;100.00
21902;BME280;11115;46.038;14.612;2023-04-25T06:19:54;97747.22;;;10.13;100.00
21902;BME280;11115;46.038;14.612;2023-04-25T06:22:28;97757.78;;;10.20;100.00
21902;BME280;11115;46.038;14.612;2023-04-25T06:25:02;97754.69;;;10.04;100.00
21902;BME280;11115;46.038;14.612;2023-04-25T06:27:33;97752.25;;;10.20;100.00
21902;BME280;11115;46.038;14.612;2023-04-25T06:30:16;97756.81;;;10.16;100.00
21902;BME280;11115;46.038;14.612;2023-04-25T06:32:53;97760.13;;;10.26;100.00
21902;BME280;11115;46.038;14.612;2023-04-25T06:35:31;97759.63;;;10.24;100.00
21902;BME280;11115;46.038;14.612;2023-04-25T06:38:10;97762.66;;;10.14;100.00
21902;BME280;11115;46.038;14.612;2023-04-25T06:40:48;97734.69;;;10.07;100.00
21902;BME280;11115;46.038;14.612;2023-04-25T06:43:36;97746.75;;;10.37;100.00
21902;BME280;11115;46.038;14.612;2023-04-25T06:46:30;97757.03;;;10.28;100.00
21902;BME280;11115;46.038;14.612;2023-04-25T06:49:01;97756.69;;;10.47;100.00
21902;BME280;11115;46.038;14.612;2023-04-25T06:51:33;97755.84;;;10.72;100.00
21902;BME280;11115;46.038;14.612;2023-04-25T06:54:08;97726.56;;;10.80;100.00
21902;BME280;11115;46.038;14.612;2023-04-25T06:56:53;97744.72;;;10.98;100.00
21902;BME280;11115;46.038;14.612;2023-04-25T06:59:29;97755.78;;;10.98;100.00
21902;BME280;11115;46.038;14.612;2023-04-25T07:02:13;97756.69;;;11.28;100.00
21902;BME280;11115;46.038;14.612;2023-04-25T07:04:46;97757.47;;;11.37;100.00
21902;BME280;11115;46.038;14.612;2023-04-25T07:07:16;97762.31;;;11.58;100.00
21902;BME280;11115;46.038;14.612;2023-04-25T07:09:56;97756.84;;;11.70;100.00
21902;BME280;11115;46.038;14.612;2023-04-25T07:12:36;97754.59;;;11.63;100.00
21902;BME280;11115;46.038;14.612;2023-04-25T07:15:07;97739.47;;;11.61;100.00
21902;BME280;11115;46.038;14.612;2023-04-25T07:17:42;97760.50;;;11.91;100.00
21902;BME280;11115;46.038;14.612;2023-04-25T07:20:13;97746.06;;;11.77;100.00
21902;BME280;11115;46.038;14.612;2023-04-25T07:22:59;97744.41;;;11.76;100.00
21902;BME280;11115;46.038;14.612;2023-04-25T07:25:29;97735.38;;;11.96;100.00
21902;BME280;11115;46.038;14.612;2023-04-25T07:28:01;97722.41;;;12.09;100.00
21902;BME280;11115;46.038;14.612;2023-04-25T07:30:40;97718.59;;;12.13;100.00
21902;BME280;11115;46.038;14.612;2023-04-25T07:33:26;97728.41;;;12.32;100.00
21902;BME280;11115;46.038;14.612;2023-04-25T07:36:02;97729.69;;;12.13;100.00
21902;BME280;11115;46.038;14.612;2023-04-25T07:38:34;97725.63;;;12.11;100.00
21902;BME280;11115;46.038;14.612;2023-04-25T07:41:01;97719.41;;;11.64;100.00
21902;BME280;11115;46.038;14.612;2023-04-25T07:43:33;97728.34;;;11.99;100.00
21902;BME280;11115;46.038;14.612;2023-04-25T07:46:06;97730.31;;;12.19;100.00
21902;BME280;11115;46.038;14.612;2023-04-25T07:48:48;97730.78;;;12.00;100.00
21902;BME280;11115;46.038;14.612;2023-04-25T07:51:25;97718.47;;;12.10;100.00
21902;BME280;11115;46.038;14.612;2023-04-25T07:54:17;97721.25;;;12.10;100.00
21902;BME280;11115;46.038;14.612;2023-04-25T07:57:12;97723.75;;;12.24;100.00
21902;BME280;11115;46.038;14.612;2023-04-25T07:59:45;97727.69;;;12.43;100.00
21902;BME280;11115;46.038;14.612;2023-04-25T08:02:23;97722.78;;;12.61;100.00
21902;BME280;11115;46.038;14.612;2023-04-25T08:04:58;97702.84;;;12.80;100.00
21902;BME280;11115;46.038;14.612;2023-04-25T08:07:41;97710.22;;;12.43;100.00
21902;BME280;11115;46.038;14.612;2023-04-25T08:10:12;97725.66;;;12.86;100.00
21902;BME280;11115;46.038;14.612;2023-04-25T08:12:50;97712.03;;;12.93;100.00
21902;BME280;11115;46.038;14.612;2023-04-25T08:15:31;97719.44;;;13.01;100.00
21902;BME280;11115;46.038;14.612;2023-04-25T08:18:16;97714.00;;;12.92;100.00
21902;BME280;11115;46.038;14.612;2023-04-25T08:20:49;97703.84;;;13.08;100.00
21902;BME280;11115;46.038;14.612;2023-04-25T08:23:20;97712.22;;;12.75;100.00
21902;BME280;11115;46.038;14.612;2023-04-25T08:26:15;97716.22;;;12.99;100.00
21902;BME280;11115;46.038;14.612;2023-04-25T08:28:58;97714.22;;;13.32;100.00
21902;BME280;11115;46.038;14.612;2023-04-25T08:31:39;97708.00;;;13.72;100.00
21902;BME280;11115;46.038;14.612;2023-04-25T08:34:14;97709.16;;;13.71;100.00
21902;BME280;11115;46.038;14.612;2023-04-25T08:36:47;97710.06;;;13.39;100.00
21902;BME280;11115;46.038;14.612;2023-04-25T08:39:38;97714.91;;;13.66;100.00
21902;BME280;11115;46.038;14.612;2023-04-25T08:42:43;97706.94;;;13.64;100.00
21902;BME280;11115;46.038;14.612;2023-04-25T08:45:14;97703.19;;;14.09;100.00
21902;BME280;11115;46.038;14.612;2023-04-25T08:47:45;97709.03;;;14.32;100.00
21902;BME280;11115;46.038;14.612;2023-04-25T08:50:22;97694.06;;;14.37;100.00
21902;BME280;11115;46.038;14.612;2023-04-25T08:53:08;97707.56;;;14.63;100.00
21902;BME280;11115;46.038;14.612;2023-04-25T08:55:43;97708.09;;;14.96;100.00
21902;BME280;11115;46.038;14.612;2023-04-25T08:58:14;97692.66;;;14.43;100.00
21902;BME280;11115;46.038;14.612;2023-04-25T09:00:50;97713.53;;;14.49;100.00
21902;BME280;11115;46.038;14.612;2023-04-25T09:03:24;97711.41;;;14.06;100.00
21902;BME280;11115;46.038;14.612;2023-04-25T09:06:02;97708.63;;;14.06;100.00
21902;BME280;11115;46.038;14.612;2023-04-25T09:08:36;97714.91;;;14.43;100.00
21902;BME280;11115;46.038;14.612;2023-04-25T09:11:23;97718.28;;;14.36;100.00
21902;BME280;11115;46.038;14.612;2023-04-25T09:17:06;97715.63;;;14.52;100.00
21902;BME280;11115;46.038;14.612;2023-04-25T09:20:10;97716.13;;;14.70;100.00
21902;BME280;11115;46.038;14.612;2023-04-25T09:22:41;97697.41;;;14.42;100.00
21902;BME280;11115;46.038;14.612;2023-04-25T09:25:14;97701.63;;;14.24;100.00
21902;BME280;11115;46.038;14.612;2023-04-25T09:27:53;97708.97;;;14.56;100.00
21902;BME280;11115;46.038;14.612;2023-04-25T09:30:34;97699.72;;;14.52;100.00
21902;BME280;11115;46.038;14.612;2023-04-25T09:33:40;97709.41;;;14.71;100.00
21902;BME280;11115;46.038;14.612;2023-04-25T09:36:26;97705.69;;;14.95;100.00
21902;BME280;11115;46.038;14.612;2023-04-25T09:39:14;97712.81;;;14.80;100.00
21902;BME280;11115;46.038;14.612;2023-04-25T09:42:17;97704.91;;;14.66;100.00
21902;BME280;11115;46.038;14.612;2023-04-25T09:44:46;97717.47;;;14.76;100.00
21902;BME280;11115;46.038;14.612;2023-04-25T09:47:19;97710.84;;;15.08;100.00
21902;BME280;11115;46.038;14.612;2023-04-25T09:49:49;97707.66;;;14.94;100.00
21902;BME280;11115;46.038;14.612;2023-04-25T09:52:22;97709.94;;;15.04;100.00
21902;BME280;11115;46.038;14.612;2023-04-25T09:55:04;97695.69;;;14.38;100.00
21902;BME280;11115;46.038;14.612;2023-04-25T09:58:04;97694.91;;;14.65;100.00
21902;BME280;11115;46.038;14.612;2023-04-25T10:00:34;97687.75;;;14.80;100.00
21902;BME280;11115;46.038;14.612;2023-04-25T10:03:23;97687.72;;;14.92;100.00
21902;BME280;11115;46.038;14.612;2023-04-25T10:06:19;97676.22;;;14.94;100.00
21902;BME280;11115;46.038;14.612;2023-04-25T10:08:52;97676.38;;;15.01;100.00
21902;BME280;11115;46.038;14.612;2023-04-25T10:11:36;97666.63;;;15.07;100.00
21902;BME280;11115;46.038;14.612;2023-04-25T10:14:21;97666.44;;;15.15;100.00
21902;BME280;11115;46.038;14.612;2023-04-25T10:16:53;97673.25;;;15.02;100.00
21902;BME280;11115;46.038;14.612;2023-04-25T10:19:26;97659.88;;;14.92;100.00
21902;BME280;11115;46.038;14.612;2023-04-25T10:22:26;97645.00;;;14.72;100.00
21902;BME280;11115;46.038;14.612;2023-04-25T10:25:03;97650.84;;;14.67;100.00
21902;BME280;11115;46.038;14.612;2023-04-25T10:27:41;97635.38;;;14.42;100.00
21902;BME280;11115;46.038;14.612;2023-04-25T10:30:14;97638.91;;;14.67;100.00
21902;BME280;11115;46.038;14.612;2023-04-25T10:32:55;97636.72;;;14.60;100.00
21902;BME280;11115;46.038;14.612;2023-04-25T10:35:34;97645.16;;;14.64;100.00
21902;BME280;11115;46.038;14.612;2023-04-25T10:38:13;97637.97;;;14.63;100.00
21902;BME280;11115;46.038;14.612;2023-04-25T10:41:03;97623.53;;;14.73;100.00
21902;BME280;11115;46.038;14.612;2023-04-25T10:43:46;97632.16;;;14.83;100.00
21902;BME280;11115;46.038;14.612;2023-04-25T10:46:32;97618.75;;;14.57;100.00
21902;BME280;11115;46.038;14.612;2023-04-25T10:49:08;97621.38;;;14.82;100.00
21902;BME280;11115;46.038;14.612;2023-04-25T10:51:41;97626.25;;;15.01;100.00
21902;BME280;11115;46.038;14.612;2023-04-25T10:54:22;97621.75;;;14.80;100.00
21902;BME280;11115;46.038;14.612;2023-04-25T10:56:54;97615.59;;;14.87;100.00
21902;BME280;11115;46.038;14.612;2023-04-25T10:59:28;97617.00;;;14.81;100.00
21902;BME280;11115;46.038;14.612;2023-04-25T11:01:58;97627.31;;;14.80;100.00
21902;BME280;11115;46.038;14.612;2023-04-25T11:04:31;97621.78;;;14.96;100.00
21902;BME280;11115;46.038;14.612;2023-04-25T11:07:26;97601.44;;;14.80;100.00
21902;BME280;11115;46.038;14.612;2023-04-25T11:10:03;97604.50;;;14.75;100.00
21902;BME280;11115;46.038;14.612;2023-04-25T11:12:50;97602.00;;;15.01;100.00
21902;BME280;11115;46.038;14.612;2023-04-25T11:15:23;97597.31;;;15.21;100.00
21902;BME280;11115;46.038;14.612;2023-04-25T11:18:16;97598.03;;;15.18;100.00
21902;BME280;11115;46.038;14.612;2023-04-25T11:20:53;97600.06;;;15.68;100.00
21902;BME280;11115;46.038;14.612;2023-04-25T11:23:25;97601.31;;;15.71;100.00
21902;BME280;11115;46.038;14.612;2023-04-25T11:26:06;97601.63;;;15.50;100.00
21902;BME280;11115;46.038;14.612;2023-04-25T11:28:37;97591.44;;;15.42;100.00
21902;BME280;11115;46.038;14.612;2023-04-25T11:31:08;97592.81;;;15.64;100.00
21902;BME280;11115;46.038;14.612;2023-04-25T11:33:40;97587.63;;;15.82;100.00
21902;BME280;11115;46.038;14.612;2023-04-25T11:36:20;97597.28;;;15.53;100.00
21902;BME280;11115;46.038;14.612;2023-04-25T11:38:50;97586.22;;;15.56;100.00
21902;BME280;11115;46.038;14.612;2023-04-25T11:41:28;97587.44;;;15.74;100.00
21902;BME280;11115;46.038;14.612;2023-04-25T11:44:19;97574.84;;;15.30;100.00
21902;BME280;11115;46.038;14.612;2023-04-25T11:46:50;97579.00;;;15.20;100.00
21902;BME280;11115;46.038;14.612;2023-04-25T11:49:21;97561.59;;;14.92;100.00
21902;BME280;11115;46.038;14.612;2023-04-25T11:51:56;97571.72;;;15.15;100.00
21902;BME280;11115;46.038;14.612;2023-04-25T11:54:26;97578.09;;;15.16;100.00
21902;BME280;11115;46.038;14.612;2023-04-25T11:56:59;97559.31;;;15.13;100.00
21902;BME280;11115;46.038;14.612;2023-04-25T11:59:33;97575.41;;;15.04;100.00
21902;BME280;11115;46.038;14.612;2023-04-25T12:02:07;97577.78;;;14.86;100.00
21902;BME280;11115;46.038;14.612;2023-04-25T12:04:41;97524.19;;;14.45;100.00
21902;BME280;11115;46.038;14.612;2023-04-25T12:07:13;97573.25;;;14.81;100.00
21902;BME280;11115;46.038;14.612;2023-04-25T12:10:11;97556.19;;;14.67;100.00
21902;BME280;11115;46.038;14.612;2023-04-25T12:12:49;97565.97;;;14.77;100.00
21902;BME280;11115;46.038;14.612;2023-04-25T12:15:25;97555.94;;;14.88;100.00
21902;BME280;11115;46.038;14.612;2023-04-25T12:17:56;97553.16;;;14.88;100.00
21902;BME280;11115;46.038;14.612;2023-04-25T12:20:27;97549.84;;;14.67;100.00
21902;BME280;11115;46.038;14.612;2023-04-25T12:22:56;97551.97;;;14.73;100.00
21902;BME280;11115;46.038;14.612;2023-04-25T12:25:41;97550.38;;;14.72;100.00
21902;BME280;11115;46.038;14.612;2023-04-25T12:28:20;97546.59;;;14.80;100.00
21902;BME280;11115;46.038;14.612;2023-04-25T12:31:05;97550.72;;;14.71;100.00
21902;BME280;11115;46.038;14.612;2023-04-25T12:33:44;97536.16;;;14.77;100.00
21902;BME280;11115;46.038;14.612;2023-04-25T12:36:17;97539.69;;;14.74;100.00
21902;BME280;11115;46.038;14.612;2023-04-25T12:38:54;97530.88;;;14.88;100.00
21902;BME280;11115;46.038;14.612;2023-04-25T12:41:35;97522.81;;;14.67;100.00
21902;BME280;11115;46.038;14.612;2023-04-25T12:44:14;97519.66;;;14.69;100.00
21902;BME280;11115;46.038;14.612;2023-04-25T12:46:48;97519.66;;;14.69;100.00
21902;BME280;11115;46.038;14.612;2023-04-25T12:49:19;97532.66;;;14.80;100.00
21902;BME280;11115;46.038;14.612;2023-04-25T12:51:52;97534.63;;;14.64;100.00
21902;BME280;11115;46.038;14.612;2023-04-25T12:54:23;97528.47;;;14.86;100.00
21902;BME280;11115;46.038;14.612;2023-04-25T12:56:54;97529.97;;;14.68;100.00
21902;BME280;11115;46.038;14.612;2023-04-25T12:59:37;97520.81;;;14.68;100.00
21902;BME280;11115;46.038;14.612;2023-04-25T13:02:08;97525.59;;;14.67;100.00
21902;BME280;11115;46.038;14.612;2023-04-25T13:04:39;97525.59;;;14.67;100.00
21902;BME280;11115;46.038;14.612;2023-04-25T13:07:13;97514.97;;;14.73;100.00
21902;BME280;11115;46.038;14.612;2023-04-25T13:09:44;97527.63;;;14.54;100.00
21902;BME280;11115;46.038;14.612;2023-04-25T13:12:17;97522.88;;;14.71;100.00
21902;BME280;11115;46.038;14.612;2023-04-25T13:15:03;97520.47;;;14.69;100.00
21902;BME280;11115;46.038;14.612;2023-04-25T13:17:38;97532.28;;;14.82;100.00
21902;BME280;11115;46.038;14.612;2023-04-25T13:20:14;97520.34;;;14.81;100.00
21902;BME280;11115;46.038;14.612;2023-04-25T13:22:50;97523.59;;;14.83;100.00
21902;BME280;11115;46.038;14.612;2023-04-25T13:25:35;97508.16;;;14.70;100.00
21902;BME280;11115;46.038;14.612;2023-04-25T13:28:06;97518.13;;;14.87;100.00
21902;BME280;11115;46.038;14.612;2023-04-25T13:30:35;97519.38;;;14.90;100.00
21902;BME280;11115;46.038;14.612;2023-04-25T13:33:09;97516.97;;;14.88;100.00
21902;BME280;11115;46.038;14.612;2023-04-25T13:35:43;97508.41;;;14.97;100.00
21902;BME280;11115;46.038;14.612;2023-04-25T13:38:15;97511.91;;;14.94;100.00
21902;BME280;11115;46.038;14.612;2023-04-25T13:40:45;97498.00;;;14.94;100.00
21902;BME280;11115;46.038;14.612;2023-04-25T13:43:16;97511.63;;;14.99;100.00
21902;BME280;11115;46.038;14.612;2023-04-25T13:45:59;97509.84;;;14.91;100.00